Time;durP1;ratioP1;P1;durP2;ratioP2;P2;SDS_P1;SDS_P2;PMS_P1;PMS_P2;Temp;Humidity;BMP_temperature;BMP_pressure;BME280_temperature;BME280_humidity;BME280_pressure;Samples;Min_cycle;Max_cycle;Signal;HPM_P1;HPM_P2
2022/03/17 00:00:55;51251.00;0.17;89.35;0.00;0.00;0.62;;;;;14.70;1.00;;;;;;2260102;61;1582;-87
2022/03/17 00:03:23;114170.00;0.38;198.02;0.00;0.00;0.62;;;;;14.80;1.00;;;;;;2260088;61;1016;-87
2022/03/17 00:05:51;126424.00;0.42;219.16;0.00;0.00;0.62;;;;;15.10;1.00;;;;;;2259965;61;1280;-89
2022/03/17 00:08:19;200376.00;0.67;346.57;0.00;0.00;0.62;;;;;15.40;1.00;;;;;;2259865;61;1914;-87
2022/03/17 00:10:46;34394.00;0.11;60.19;0.00;0.00;0.62;;;;;15.30;1.00;;;;;;2259828;61;1029;-88
2022/03/17 00:13:13;277536.00;0.93;479.30;0.00;0.00;0.62;;;;;15.40;1.00;;;;;;2259841;61;1098;-88
2022/03/17 00:15:40;192822.00;0.64;333.57;0.00;0.00;0.62;;;;;15.30;1.00;;;;;;2259969;61;1464;-87
2022/03/17 00:18:07;8539.00;0.03;15.42;0.00;0.00;0.62;;;;;15.00;1.00;;;;;;2259923;61;1793;-87
2022/03/17 00:20:35;103414.00;0.34;179.46;0.00;0.00;0.62;;;;;15.00;1.00;;;;;;2259934;61;1092;-87
2022/03/17 00:23:05;161710.00;0.54;279.99;0.00;0.00;0.62;;;;;15.10;1.00;;;;;;2260027;61;1036;-89
2022/03/17 00:25:32;19009.00;0.06;33.55;0.00;0.00;0.62;;;;;14.80;1.00;;;;;;2259733;61;1765;-86
2022/03/17 00:28:00;52062.00;0.17;90.75;0.00;0.00;0.62;;;;;14.70;1.00;;;;;;2259976;61;2005;-87
2022/03/17 00:30:27;56905.00;0.19;99.13;0.00;0.00;0.62;;;;;14.40;1.00;;;;;;2259957;61;1044;-87
2022/03/17 00:32:55;345866.00;1.15;596.76;45638.00;0.15;79.64;;;;;14.30;1.00;;;;;;2260031;61;967;-86
2022/03/17 00:35:38;695206.00;2.32;1198.93;42851.00;0.14;74.82;;;;;14.30;1.00;;;;;;2259862;61;1363;-89
2022/03/17 00:38:09;369523.00;1.23;637.42;0.00;0.00;0.62;;;;;14.60;1.00;;;;;;2259842;61;1526;-88
2022/03/17 00:40:36;43121.00;0.14;75.29;0.00;0.00;0.62;;;;;14.80;1.00;;;;;;2260060;61;1115;-88
2022/03/17 00:43:04;33141.00;0.11;58.02;0.00;0.00;0.62;;;;;14.90;1.00;;;;;;2259918;61;1075;-88
2022/03/17 00:45:32;44587.00;0.15;77.82;0.00;0.00;0.62;;;;;15.10;1.00;;;;;;2260654;61;1379;-89
2022/03/17 00:47:59;280692.00;0.94;484.73;26723.00;0.09;46.91;;;;;14.70;1.00;;;;;;2260576;61;1933;-89
2022/03/17 00:50:26;504200.00;1.68;869.06;21781.00;0.07;38.35;;;;;14.70;1.00;;;;;;2267244;40;3604;-88
2022/03/17 00:52:54;1679051.00;5.60;2984.79;66238.00;0.22;115.26;;;;;14.80;1.00;;;;;;2264737;61;1439;-88
2022/03/17 00:55:23;1305816.00;4.35;2282.75;44074.00;0.15;76.94;;;;;14.50;1.00;;;;;;2264569;61;1384;-88
2022/03/17 00:57:50;1059378.00;3.53;1837.93;229710.00;0.77;397.05;;;;;14.30;1.00;;;;;;2264492;61;1334;-87
2022/03/17 01:00:20;1453324.00;4.84;2555.59;56254.00;0.19;98.00;;;;;14.30;1.00;;;;;;2264614;61;1310;-88
2022/03/17 01:02:49;991934.00;3.31;1718.19;59060.00;0.20;102.85;;;;;14.60;1.00;;;;;;2264599;61;1521;-88
2022/03/17 01:05:17;826625.00;2.76;1427.60;39359.00;0.13;68.78;;;;;14.40;1.00;;;;;;2264559;61;1465;-88
2022/03/17 01:07:44;817394.00;2.72;1411.48;39116.00;0.13;68.36;;;;;14.60;1.00;;;;;;2264531;61;2005;-89
2022/03/17 01:10:15;834990.00;2.78;1442.22;62565.00;0.21;108.91;;;;;14.80;1.00;;;;;;2264643;61;976;-88
2022/03/17 01:12:46;820971.00;2.74;1417.72;8669.00;0.03;15.64;;;;;14.70;1.00;;;;;;2264548;61;2191;-88
2022/03/17 01:15:14;1078339.00;3.59;1871.73;127527.00;0.43;221.06;;;;;14.50;1.00;;;;;;2264572;61;1381;-89
2022/03/17 01:17:41;833797.00;2.78;1440.13;80790.00;0.27;140.40;;;;;14.40;1.00;;;;;;2264644;61;1137;-90
2022/03/17 01:20:09;729591.00;2.43;1258.59;12745.00;0.04;22.70;;;;;14.40;1.00;;;;;;2264378;61;1772;-87
2022/03/17 01:22:37;729968.00;2.43;1259.25;38722.00;0.13;67.68;;;;;14.50;1.00;;;;;;2264588;61;1032;-86
2022/03/17 01:25:05;518446.00;1.73;893.59;50043.00;0.17;87.26;;;;;14.60;1.00;;;;;;2264581;61;1370;-87
2022/03/17 01:27:34;835904.00;2.79;1443.81;78731.00;0.26;136.85;;;;;14.70;1.00;;;;;;2264588;61;939;-87
2022/03/17 01:30:04;894293.00;2.98;1546.10;107449.00;0.36;186.43;;;;;14.80;1.00;;;;;;2264459;61;1936;-88
2022/03/17 01:32:32;979095.00;3.26;1695.48;95992.00;0.32;166.65;;;;;14.60;1.00;;;;;;2264571;61;1061;-89
2022/03/17 01:34:59;858997.00;2.86;1484.22;84579.00;0.28;146.95;;;;;14.20;1.00;;;;;;2264328;61;1270;-87
2022/03/17 01:37:27;872300.00;2.91;1507.52;40768.00;0.14;71.22;;;;;14.10;1.00;;;;;;2264520;61;1582;-88
2022/03/17 01:39:54;871095.00;2.90;1505.41;95842.00;0.32;166.39;;;;;14.00;1.00;;;;;;2264487;61;1278;-87
2022/03/17 01:42:22;993426.00;3.31;1720.83;97156.00;0.32;168.66;;;;;14.10;1.00;;;;;;2264470;61;1439;-88
2022/03/17 01:44:49;1469239.00;4.90;2585.37;126065.00;0.42;218.54;;;;;14.20;1.00;;;;;;2264460;61;1377;-89
2022/03/17 01:47:31;1153230.00;3.84;2005.88;81041.00;0.27;140.84;;;;;14.20;1.00;;;;;;2264545;61;1019;-88
2022/03/17 01:50:01;1167043.00;3.89;2030.75;70676.00;0.24;122.93;;;;;14.10;1.00;;;;;;2264387;61;2034;-89
2022/03/17 01:52:29;1135147.00;3.78;1973.39;42542.00;0.14;74.29;;;;;14.10;1.00;;;;;;2264345;61;1557;-88
2022/03/17 01:54:56;1520567.00;5.07;2681.88;102434.00;0.34;177.77;;;;;14.10;1.00;;;;;;2264373;61;1368;-88
2022/03/17 01:57:23;1251114.00;4.17;2182.91;211091.00;0.70;365.01;;;;;14.10;1.00;;;;;;2264300;61;1443;-89
2022/03/17 01:59:52;849542.00;2.83;1467.67;109083.00;0.36;189.25;;;;;14.10;1.00;;;;;;2264376;61;1217;-88
2022/03/17 02:02:21;1319909.00;4.40;2308.59;59962.00;0.20;104.41;;;;;14.10;1.00;;;;;;2264488;61;1061;-88
2022/03/17 02:04:48;1379213.00;4.60;2417.83;108178.00;0.36;187.69;;;;;14.10;1.00;;;;;;2264456;61;1369;-88
2022/03/17 02:07:16;1029169.00;3.43;1784.20;196484.00;0.65;339.87;;;;;14.00;1.00;;;;;;2264489;61;1131;-89
2022/03/17 02:09:44;617822.00;2.06;1065.00;109090.00;0.36;189.26;;;;;13.80;1.00;;;;;;2264386;61;1916;-86
2022/03/17 02:14:59;718107.00;2.39;1238.65;92539.00;0.31;160.69;;;;;13.90;1.00;;;;;;2264372;61;1455;-89
2022/03/17 02:17:30;1002752.00;3.34;1737.35;117734.00;0.39;204.17;;;;;13.80;1.00;;;;;;2264423;61;927;-89
2022/03/17 02:19:58;698319.00;2.33;1204.32;122875.00;0.41;213.04;;;;;13.90;1.00;;;;;;2264435;61;1129;-89
2022/03/17 02:22:26;118688024.00;395.63;67727024.00;118254008.00;394.18;66986080.00;;;;;13.90;1.00;;;;;;2264389;61;1092;-89
2022/03/17 02:27:42;474912.00;1.58;818.64;91002.00;0.30;158.04;;;;;14.10;1.00;;;;;;2264465;61;681;-90
2022/03/17 02:30:11;455555.00;1.52;785.34;165147.00;0.55;285.91;;;;;13.80;1.00;;;;;;2264380;61;1932;-88
2022/03/17 02:32:38;567903.00;1.89;978.83;89574.00;0.30;155.57;;;;;14.20;1.00;;;;;;2264412;61;932;-88
2022/03/17 02:35:07;715594.00;2.39;1234.29;152142.00;0.51;263.50;;;;;14.30;1.00;;;;;;2264289;61;1280;-89
2022/03/17 02:37:34;392441.00;1.31;676.81;82436.00;0.27;143.24;;;;;14.40;1.00;;;;;;2264392;61;924;-88
2022/03/17 02:40:06;281447.00;0.94;486.03;75891.00;0.25;131.94;;;;;14.30;1.00;;;;;;2264250;61;954;-89
2022/03/17 02:42:33;360222.00;1.20;621.43;88687.00;0.30;154.04;;;;;14.40;1.00;;;;;;2264398;61;861;-88
2022/03/17 02:45:02;508196.00;1.69;875.94;71145.00;0.24;123.74;;;;;14.60;1.00;;;;;;2264106;61;1693;-89
2022/03/17 02:47:29;398944.00;1.33;687.99;84524.00;0.28;146.85;;;;;14.50;1.00;;;;;;2264316;61;1010;-88
2022/03/17 02:49:56;356390.00;1.19;614.84;95962.00;0.32;166.60;;;;;14.30;1.00;;;;;;2264320;61;2024;-88
2022/03/17 02:52:23;380199.00;1.27;655.77;87664.00;0.29;152.27;;;;;14.10;1.00;;;;;;2264297;61;1074;-88
2022/03/17 02:54:51;240886.00;0.80;416.28;88312.00;0.29;153.39;;;;;13.70;1.00;;;;;;2264073;61;1301;-88
2022/03/17 02:57:20;108022.00;0.36;187.42;0.00;0.00;0.62;;;;;13.50;1.00;;;;;;2264285;61;1022;-88
2022/03/17 02:59:48;243394.00;0.81;420.59;0.00;0.00;0.62;;;;;13.40;1.00;;;;;;2264155;61;1003;-88
2022/03/17 03:02:15;97106.00;0.32;168.58;0.00;0.00;0.62;;;;;13.20;1.00;;;;;;2264248;61;1703;-87
2022/03/17 03:04:42;332183.00;1.11;573.24;36396.00;0.12;63.65;;;;;13.40;1.00;;;;;;2264298;61;1400;-87
2022/03/17 03:07:09;92026.00;0.31;159.81;0.00;0.00;0.62;;;;;13.30;1.00;;;;;;2264051;61;1028;-88
2022/03/17 03:09:36;70817.00;0.24;123.17;0.00;0.00;0.62;;;;;13.20;1.00;;;;;;2264138;61;2005;-90
2022/03/17 03:12:04;234492.00;0.78;405.28;0.00;0.00;0.62;;;;;13.40;1.00;;;;;;2263995;61;1406;-90
2022/03/17 03:14:33;241537.00;0.81;417.39;0.00;0.00;0.62;;;;;13.20;1.00;;;;;;2264150;61;1446;-88
2022/03/17 03:17:00;133768.00;0.45;231.83;0.00;0.00;0.62;;;;;13.20;1.00;;;;;;2264205;61;1570;-86
2022/03/17 03:19:27;629105.00;2.10;1084.50;84668.00;0.28;147.10;;;;;13.10;1.00;;;;;;2264298;61;1071;-86
2022/03/17 03:21:54;120387.00;0.40;208.75;0.00;0.00;0.62;;;;;12.90;1.00;;;;;;2264191;61;999;-86
2022/03/17 03:24:21;227810.00;0.76;393.78;0.00;0.00;0.62;;;;;12.70;1.00;;;;;;2264162;61;1411;-88
2022/03/17 03:26:48;184997.00;0.62;320.09;0.00;0.00;0.62;;;;;12.70;1.00;;;;;;2264119;61;1551;-87
2022/03/17 03:29:25;231777.00;0.77;400.61;0.00;0.00;0.62;;;;;12.70;1.00;;;;;;2264154;61;1993;-87
2022/03/17 03:31:56;153964.00;0.51;266.64;0.00;0.00;0.62;;;;;12.60;1.00;;;;;;2264043;61;1327;-86
2022/03/17 03:34:24;304669.00;1.02;525.95;0.00;0.00;0.62;;;;;12.40;1.00;;;;;;2264123;61;1622;-87
2022/03/17 03:39:38;96583.00;0.32;167.67;0.00;0.00;0.62;;;;;12.20;1.00;;;;;;2264258;61;672;-88
2022/03/17 03:42:07;0.00;0.00;0.62;0.00;0.00;0.62;;;;;12.30;1.00;;;;;;2264084;61;1115;-89
2022/03/17 03:44:34;55884.00;0.19;97.36;0.00;0.00;0.62;;;;;12.30;1.00;;;;;;2264085;61;1298;-88
2022/03/17 03:47:03;154133.00;0.51;266.93;0.00;0.00;0.62;;;;;12.50;1.00;;;;;;2264167;61;1004;-90
2022/03/17 03:49:30;279782.00;0.93;483.16;0.00;0.00;0.62;;;;;12.80;1.00;;;;;;2264059;61;1910;-89
2022/03/17 03:51:57;152897.00;0.51;264.80;0.00;0.00;0.62;;;;;13.10;1.00;;;;;;2264086;61;1152;-87
2022/03/17 03:54:23;151102.00;0.50;261.71;0.00;0.00;0.62;;;;;13.40;1.00;;;;;;2264098;61;1297;-88
2022/03/17 03:56:52;467687.00;1.56;806.21;57986.00;0.19;101.00;;;;;13.50;1.00;;;;;;2263982;61;1133;-88
2022/03/17 03:59:21;332161.00;1.11;573.20;0.00;0.00;0.62;;;;;13.50;1.00;;;;;;2278801;56;3752;-87
2022/03/17 04:01:50;286136.00;0.95;494.09;0.00;0.00;0.62;;;;;13.70;1.00;;;;;;2264065;61;1418;-87
2022/03/17 04:04:20;75293.00;0.25;130.91;0.00;0.00;0.62;;;;;13.90;1.00;;;;;;2264101;61;1358;-87
2022/03/17 04:06:48;234686.00;0.78;405.61;0.00;0.00;0.62;;;;;14.10;1.00;;;;;;2263911;61;1503;-87
2022/03/17 04:09:17;55467.00;0.18;96.64;0.00;0.00;0.62;;;;;13.90;1.00;;;;;;2263951;61;1918;-88
2022/03/17 04:11:45;282313.00;0.94;487.51;0.00;0.00;0.62;;;;;13.70;1.00;;;;;;2264120;61;1061;-88
2022/03/17 04:14:13;77334.00;0.26;134.43;0.00;0.00;0.62;;;;;14.00;1.00;;;;;;2264009;61;1140;-87
2022/03/17 04:16:41;289004.00;0.96;499.02;0.00;0.00;0.62;;;;;14.10;1.00;;;;;;2264111;61;997;-88
2022/03/17 04:19:09;248363.00;0.83;429.14;65061.00;0.22;113.22;;;;;14.20;1.00;;;;;;2264788;61;935;-89
2022/03/17 04:21:38;316843.00;1.06;546.87;0.00;0.00;0.62;;;;;14.10;1.00;;;;;;2264728;61;1054;-88
2022/03/17 04:24:05;114333.00;0.38;198.31;0.00;0.00;0.62;;;;;14.10;1.00;;;;;;2264769;61;974;-89
2022/03/17 04:26:33;225048.00;0.75;389.03;0.00;0.00;0.62;;;;;14.30;1.00;;;;;;2264609;61;1687;-89
2022/03/17 04:29:00;212682.00;0.71;367.75;0.00;0.00;0.62;;;;;14.60;1.00;;;;;;2264596;61;1916;-88
2022/03/17 04:31:41;505344.00;1.68;871.02;28138.00;0.09;49.36;;;;;14.70;1.00;;;;;;2264784;61;1068;-87
2022/03/17 04:34:10;540600.00;1.80;931.76;9113.00;0.03;16.41;;;;;14.60;1.00;;;;;;2264752;61;1329;-88
2022/03/17 04:36:40;352595.00;1.18;608.32;0.00;0.00;0.62;;;;;14.40;1.00;;;;;;2264672;61;1201;-88
2022/03/17 04:39:10;635744.00;2.12;1095.98;7410.00;0.02;13.46;;;;;14.10;1.00;;;;;;2264606;61;1416;-88
2022/03/17 04:41:37;68217.00;0.23;118.68;0.00;0.00;0.62;;;;;13.80;1.00;;;;;;2264179;61;1699;-88
2022/03/17 04:44:05;167428.00;0.56;289.84;0.00;0.00;0.62;;;;;13.50;1.00;;;;;;2264489;61;1443;-88
2022/03/17 04:46:32;193206.00;0.64;334.23;0.00;0.00;0.62;;;;;13.50;1.00;;;;;;2264392;61;1468;-89
2022/03/17 04:48:59;240128.00;0.80;414.97;78411.00;0.26;136.29;;;;;13.60;1.00;;;;;;2264406;61;2006;-87
2022/03/17 04:51:26;287328.00;0.96;496.14;0.00;0.00;0.62;;;;;13.80;1.00;;;;;;2264468;61;1095;-89
2022/03/17 04:53:55;173939.00;0.58;301.05;0.00;0.00;0.62;;;;;14.00;1.00;;;;;;2264565;61;926;-88
2022/03/17 04:56:22;276072.00;0.92;476.78;0.00;0.00;0.62;;;;;14.00;1.00;;;;;;2264442;61;1353;-88
2022/03/17 04:58:49;352291.00;1.17;607.80;0.00;0.00;0.62;;;;;13.90;1.00;;;;;;2264385;61;997;-88
2022/03/17 05:01:16;427939.00;1.43;737.84;0.00;0.00;0.62;;;;;13.80;1.00;;;;;;2264465;61;1526;-87
2022/03/17 05:03:43;245600.00;0.82;424.38;0.00;0.00;0.62;;;;;13.60;1.00;;;;;;2264389;61;1310;-89
2022/03/17 05:06:13;245741.00;0.82;424.63;0.00;0.00;0.62;;;;;13.20;1.00;;;;;;2264221;61;1678;-88
2022/03/17 05:08:40;389900.00;1.30;672.44;0.00;0.00;0.62;;;;;13.20;1.00;;;;;;2264469;61;1010;-86
2022/03/17 05:11:10;286803.00;0.96;495.23;15880.00;0.05;28.13;;;;;13.50;1.00;;;;;;2264454;61;2029;-89
2022/03/17 05:13:39;263345.00;0.88;454.90;0.00;0.00;0.62;;;;;13.60;1.00;;;;;;2264438;61;981;-89
2022/03/17 05:16:12;222230.00;0.74;384.18;0.00;0.00;0.62;;;;;13.70;1.00;;;;;;2264373;61;1288;-88
2022/03/17 05:18:40;255580.00;0.85;441.55;0.00;0.00;0.62;;;;;13.70;1.00;;;;;;2264410;61;1455;-88
2022/03/17 05:21:07;237341.00;0.79;410.18;0.00;0.00;0.62;;;;;13.80;1.00;;;;;;2264353;61;1617;-90
2022/03/17 05:23:35;382710.00;1.28;660.08;0.00;0.00;0.62;;;;;13.70;1.00;;;;;;2264415;61;1486;-87
2022/03/17 05:26:02;247531.00;0.83;427.70;0.00;0.00;0.62;;;;;13.80;1.00;;;;;;2264311;61;1340;-87
2022/03/17 05:28:33;327884.00;1.09;565.85;44961.00;0.15;78.47;;;;;13.90;1.00;;;;;;2264213;61;1600;-88
2022/03/17 05:31:00;78059.00;0.26;135.68;0.00;0.00;0.62;;;;;14.10;1.00;;;;;;2264312;61;2003;-87
2022/03/17 05:33:27;497670.00;1.66;857.81;27869.00;0.09;48.89;;;;;13.90;1.00;;;;;;2264261;61;1555;-88
2022/03/17 05:35:57;182555.00;0.61;315.89;0.00;0.00;0.62;;;;;13.50;1.00;;;;;;2264262;61;1509;-88
2022/03/17 05:38:24;177422.00;0.59;307.05;0.00;0.00;0.62;;;;;13.70;1.00;;;;;;2264330;61;1437;-89
2022/03/17 05:40:51;134815.00;0.45;233.63;0.00;0.00;0.62;;;;;13.90;1.00;;;;;;2264385;61;1674;-88
2022/03/17 05:43:20;181248.00;0.60;313.64;0.00;0.00;0.62;;;;;13.50;1.00;;;;;;2264260;61;1421;-88
2022/03/17 05:45:48;434682.00;1.45;749.44;47240.00;0.16;82.41;;;;;13.70;1.00;;;;;;2264315;61;1380;-87
2022/03/17 05:48:15;525302.00;1.75;905.40;0.00;0.00;0.62;;;;;13.30;1.00;;;;;;2264281;61;1498;-88
2022/03/17 05:50:45;348268.00;1.16;600.88;7801.00;0.03;14.14;;;;;13.10;1.00;;;;;;2264150;61;1911;-88
2022/03/17 05:53:12;208319.00;0.69;360.24;3069.00;0.01;5.94;;;;;13.10;1.00;;;;;;2264228;61;1640;-88
2022/03/17 05:55:40;756725.00;2.52;1305.75;38072.00;0.13;66.55;;;;;13.20;1.00;;;;;;2264224;61;1521;-87
2022/03/17 05:58:07;390143.00;1.30;672.86;3631.00;0.01;6.91;;;;;13.40;1.00;;;;;;2264174;61;995;-87
2022/03/17 06:00:35;377541.00;1.26;651.20;0.00;0.00;0.62;;;;;13.90;1.00;;;;;;2264261;61;1685;-86
2022/03/17 06:03:05;530833.00;1.77;914.93;46924.00;0.16;81.87;;;;;14.20;1.00;;;;;;2264221;61;1787;-87
2022/03/17 06:05:32;507907.00;1.69;875.44;65328.00;0.22;113.69;;;;;14.10;1.00;;;;;;2264261;61;1436;-88
2022/03/17 06:08:01;613619.00;2.05;1057.74;30867.00;0.10;54.08;;;;;14.00;1.00;;;;;;2264414;61;1114;-87
2022/03/17 06:10:32;501609.00;1.67;864.59;19209.00;0.06;33.90;;;;;14.10;1.00;;;;;;2264408;61;1994;-88
2022/03/17 06:13:00;344747.00;1.15;594.83;0.00;0.00;0.62;;;;;14.10;1.00;;;;;;2264374;61;1773;-87
2022/03/17 06:15:28;593889.00;1.98;1023.67;32251.00;0.11;56.48;;;;;13.70;1.00;;;;;;2264316;61;1735;-87
2022/03/17 06:17:56;449067.00;1.50;774.18;32740.00;0.11;57.33;;;;;13.60;1.00;;;;;;2264420;61;923;-88
2022/03/17 06:20:26;637990.00;2.13;1099.86;31834.00;0.11;55.76;;;;;13.70;1.00;;;;;;2264331;61;992;-88
2022/03/17 06:22:56;125671.00;0.42;217.86;6150.00;0.02;11.28;;;;;13.60;1.00;;;;;;2264236;61;962;-88
2022/03/17 06:25:25;443139.00;1.48;763.98;24479.00;0.08;43.03;;;;;13.60;1.00;;;;;;2264302;61;1436;-88
2022/03/17 06:27:52;267776.00;0.89;462.52;0.00;0.00;0.62;;;;;13.40;1.00;;;;;;2264320;61;1078;-89
2022/03/17 06:30:21;693981.00;2.31;1196.80;70429.00;0.23;122.50;;;;;13.20;1.00;;;;;;2264266;61;1911;-87
2022/03/17 06:32:50;517257.00;1.72;891.54;26387.00;0.09;46.33;;;;;13.40;1.00;;;;;;2264267;61;1451;-87
2022/03/17 06:35:19;636310.00;2.12;1096.96;42181.00;0.14;73.66;;;;;13.60;1.00;;;;;;2263965;61;1651;-87
2022/03/17 06:37:51;396718.00;1.32;684.16;40332.00;0.13;70.46;;;;;13.80;1.00;;;;;;2264255;61;1068;-87
2022/03/17 06:40:19;80607.00;0.27;140.09;0.00;0.00;0.62;;;;;13.60;1.00;;;;;;2264099;61;1591;-88
2022/03/17 06:42:47;480996.00;1.60;829.11;35306.00;0.12;61.77;;;;;13.80;1.00;;;;;;2263718;61;1007;-86
2022/03/17 06:45:15;930430.00;3.10;1609.63;62218.00;0.21;108.31;;;;;13.90;1.00;;;;;;2264126;61;1282;-89
2022/03/17 06:47:42;1274916.00;4.25;2226.27;85506.00;0.29;148.55;;;;;14.30;1.00;;;;;;2264119;61;929;-88
2022/03/17 06:50:11;860979.00;2.87;1487.69;78842.00;0.26;137.04;;;;;14.40;1.00;;;;;;2264083;61;1916;-88
2022/03/17 06:52:38;769786.00;2.57;1328.48;1852.00;0.01;3.83;;;;;14.60;1.00;;;;;;2264124;61;1038;-86
2022/03/17 06:55:09;661509.00;2.21;1140.55;67749.00;0.23;117.87;;;;;14.90;1.00;;;;;;2264092;61;1256;-87
2022/03/17 06:57:36;372279.00;1.24;642.15;0.00;0.00;0.62;;;;;15.00;1.00;;;;;;2264061;61;1127;-88
2022/03/17 07:00:05;834187.00;2.78;1440.81;65940.00;0.22;114.74;;;;;15.00;1.00;;;;;;2263935;61;1737;-88
2022/03/17 07:02:33;651833.00;2.17;1123.81;16477.00;0.05;29.17;;;;;14.90;1.00;;;;;;2264049;61;1461;-88
2022/03/17 07:05:00;692638.00;2.31;1194.47;61495.00;0.20;107.06;;;;;14.80;1.00;;;;;;2264072;61;1403;-88
2022/03/17 07:07:27;1099093.00;3.66;1908.80;85668.00;0.29;148.83;;;;;14.80;1.00;;;;;;2264021;61;1647;-87
2022/03/17 07:09:54;634361.00;2.11;1093.59;0.00;0.00;0.62;;;;;14.80;1.00;;;;;;2263966;61;1986;-89
2022/03/17 07:12:22;835886.00;2.79;1443.78;6893.00;0.02;12.57;;;;;14.70;1.00;;;;;;2263969;61;1451;-88
2022/03/17 07:14:49;472508.00;1.58;814.51;10044.00;0.03;18.03;;;;;14.80;1.00;;;;;;2263998;61;1352;-87
2022/03/17 07:17:19;781231.00;2.60;1348.41;28778.00;0.10;50.47;;;;;14.90;1.00;;;;;;2263984;61;1725;-87
2022/03/17 07:22:13;739740.00;2.47;1276.22;45738.00;0.15;79.81;;;;;14.50;1.00;;;;;;2263988;61;1003;-87
2022/03/17 07:24:40;1018927.00;3.40;1766.02;23196.00;0.08;40.80;;;;;14.60;1.00;;;;;;2263989;61;1497;-88
2022/03/17 07:27:07;735399.00;2.45;1268.68;30400.00;0.10;53.28;;;;;14.70;1.00;;;;;;2263981;61;1660;-86
2022/03/17 07:29:36;967259.00;3.22;1674.57;61701.00;0.21;107.42;;;;;15.10;1.00;;;;;;2263918;61;1078;-86
2022/03/17 07:32:04;759467.00;2.53;1310.52;54226.00;0.18;94.49;;;;;15.30;1.00;;;;;;2264027;61;918;-87
2022/03/17 07:34:31;711454.00;2.37;1227.11;0.00;0.00;0.62;;;;;15.10;1.00;;;;;;2264018;61;1388;-87
2022/03/17 07:36:58;537653.00;1.79;926.68;0.00;0.00;0.62;;;;;15.20;1.00;;;;;;2263980;61;1060;-87
2022/03/17 07:39:25;807227.00;2.69;1393.73;12228.00;0.04;21.81;;;;;15.40;1.00;;;;;;2263953;61;1818;-87
2022/03/17 07:41:52;777633.00;2.59;1342.14;26315.00;0.09;46.20;;;;;15.40;1.00;;;;;;2263941;61;932;-88
2022/03/17 07:44:20;1041221.00;3.47;1805.62;69989.00;0.23;121.74;;;;;15.40;1.00;;;;;;2263877;61;1505;-86
2022/03/17 07:46:49;997480.00;3.32;1728.01;41511.00;0.14;72.50;;;;;15.20;1.00;;;;;;2263995;61;1049;-88
2022/03/17 07:49:17;1357260.00;4.52;2377.29;111437.00;0.37;193.31;;;;;14.80;1.00;;;;;;2260339;61;1375;-88
2022/03/17 07:51:45;550188.00;1.83;948.28;92502.00;0.31;160.63;;;;;14.90;1.00;;;;;;2263748;61;1940;-88
2022/03/17 07:54:12;455424.00;1.52;785.11;87765.00;0.29;152.45;;;;;14.80;1.00;;;;;;2263970;61;1714;-88
2022/03/17 07:56:41;343549.00;1.15;592.77;84620.00;0.28;147.02;;;;;14.80;1.00;;;;;;2263908;61;1330;-88
2022/03/17 07:59:09;552187.00;1.84;951.73;109033.00;0.36;189.16;;;;;14.80;1.00;;;;;;2263846;61;1064;-89
2022/03/17 08:01:36;798625.00;2.66;1378.73;108696.00;0.36;188.58;;;;;14.70;1.00;;;;;;2263962;61;1624;-87
2022/03/17 08:04:06;664665.00;2.22;1146.02;77374.00;0.26;134.50;;;;;14.60;1.00;;;;;;2263883;61;1648;-88
2022/03/17 08:06:35;793994.00;2.65;1370.65;175538.00;0.59;303.81;;;;;14.70;1.00;;;;;;2263897;61;1296;-88
2022/03/17 08:09:02;119913744.00;399.71;69849032.00;151847.00;0.51;262.99;;;;;14.40;1.00;;;;;;2263958;61;1087;-87
2022/03/17 08:11:29;117484080.00;391.61;65685032.00;95344.00;0.32;165.53;;;;;14.20;1.00;;;;;;2263786;61;1989;-87
2022/03/17 08:13:56;552084.00;1.84;951.55;95625.00;0.32;166.02;;;;;14.00;1.00;;;;;;2263794;61;1116;-86
2022/03/17 08:16:23;771166.00;2.57;1330.88;100720.00;0.34;174.81;;;;;13.80;1.00;;;;;;2263825;61;1897;-88
2022/03/17 08:18:50;335853.00;1.12;579.55;64927.00;0.22;112.99;;;;;13.90;1.00;;;;;;2263925;61;986;-87
2022/03/17 08:21:19;620735.00;2.07;1070.04;92064.00;0.31;159.87;;;;;14.00;1.00;;;;;;2263793;61;1605;-87
2022/03/17 08:23:46;594322.00;1.98;1024.42;123601.00;0.41;214.29;;;;;14.00;1.00;;;;;;2263804;61;992;-87
2022/03/17 08:26:14;508319.00;1.69;876.15;105001.00;0.35;182.20;;;;;14.10;1.00;;;;;;2263773;61;1603;-88
2022/03/17 08:28:41;272855.00;0.91;471.25;106695.00;0.36;185.13;;;;;14.30;1.00;;;;;;2263809;61;1582;-87
2022/03/17 08:31:08;470865.00;1.57;811.68;75420.00;0.25;131.13;;;;;14.50;1.00;;;;;;2263841;61;1995;-87
2022/03/17 08:33:35;456737.00;1.52;787.37;76682.00;0.26;133.31;;;;;14.70;1.00;;;;;;2263852;61;1060;-87
2022/03/17 08:36:03;271882.00;0.91;469.58;75181.00;0.25;130.71;;;;;14.90;1.00;;;;;;2263766;61;1639;-88
2022/03/17 08:38:31;182867.00;0.61;316.43;92489.00;0.31;160.61;;;;;15.10;1.00;;;;;;2263798;61;1108;-86
2022/03/17 08:40:58;291317.00;0.97;502.99;84447.00;0.28;146.72;;;;;15.30;1.00;;;;;;2263790;61;1623;-87
2022/03/17 08:43:25;400727.00;1.34;691.05;88419.00;0.29;153.58;;;;;15.10;1.00;;;;;;2263826;61;1433;-88
2022/03/17 08:51:25;708383.00;2.36;1221.78;81615.00;0.27;141.83;;;;;15.00;1.00;;;;;;2263788;61;1907;-87
2022/03/17 08:53:54;544682.00;1.82;938.79;78085.00;0.26;135.73;;;;;14.90;1.00;;;;;;2263764;61;1298;-89
2022/03/17 08:56:21;119217800.00;397.39;68638840.00;129178.00;0.43;223.91;;;;;15.20;1.00;;;;;;2263784;61;1430;-87
2022/03/17 08:58:48;271511.00;0.91;468.94;89990.00;0.30;156.29;;;;;15.40;1.00;;;;;;2263725;61;1065;-89
2022/03/17 09:01:15;470803.00;1.57;811.57;74045.00;0.25;128.75;;;;;15.50;1.00;;;;;;2263828;61;926;-87
2022/03/17 09:03:41;343171.00;1.14;592.12;89482.00;0.30;155.41;;;;;15.30;1.00;;;;;;2263787;61;1014;-88
2022/03/17 09:06:10;382519.00;1.28;659.76;85670.00;0.29;148.83;;;;;15.20;1.00;;;;;;2264367;61;2133;-88
2022/03/17 09:08:37;519342.00;1.73;895.13;151880.00;0.51;263.05;;;;;15.20;1.00;;;;;;2264434;61;1213;-88
2022/03/17 09:11:06;556833.00;1.86;959.74;76327.00;0.25;132.69;;;;;15.20;1.00;;;;;;2264420;61;1993;-87
2022/03/17 09:13:33;628013.00;2.09;1082.61;122127.00;0.41;211.75;;;;;15.10;1.00;;;;;;2264158;61;1087;-86
2022/03/17 09:16:00;757240.00;2.52;1306.65;102123.00;0.34;177.24;;;;;14.90;1.00;;;;;;2264320;61;1603;-87
2022/03/17 09:18:27;580769.00;1.94;1001.03;83055.00;0.28;144.31;;;;;14.80;1.00;;;;;;2264380;61;1146;-87
2022/03/17 09:20:56;591437.00;1.97;1019.44;104842.00;0.35;181.93;;;;;14.90;1.00;;;;;;2264306;61;1345;-87
2022/03/17 09:23:23;369092.00;1.23;636.68;85003.00;0.28;147.68;;;;;15.10;1.00;;;;;;2264156;61;1549;-86
2022/03/17 09:25:50;283658.00;0.95;489.83;91892.00;0.31;159.57;;;;;15.20;1.00;;;;;;2264417;61;1334;-86
2022/03/17 09:28:18;117364408.00;391.21;65484344.00;114828.00;0.38;199.16;;;;;15.30;1.00;;;;;;2264384;61;1099;-87
2022/03/17 09:30:46;233953.00;0.78;404.35;83930.00;0.28;145.83;;;;;15.40;1.00;;;;;;2264320;61;1995;-89
2022/03/17 09:33:13;705064.00;2.35;1216.02;119569.00;0.40;207.34;;;;;15.50;1.00;;;;;;2264444;61;917;-87
2022/03/17 09:35:40;455180.00;1.52;784.69;81781.00;0.27;142.11;;;;;15.50;1.00;;;;;;2264418;61;1301;-87
2022/03/17 09:38:08;302962.00;1.01;523.01;84391.00;0.28;146.62;;;;;15.30;1.00;;;;;;2264333;61;996;-87
2022/03/17 09:40:35;556061.00;1.85;958.41;82314.00;0.27;143.03;;;;;15.40;1.00;;;;;;2264422;61;1271;-86
2022/03/17 09:43:21;211348.00;0.70;365.46;0.00;0.00;0.62;;;;;15.50;1.00;;;;;;2264398;61;934;-87
2022/03/17 09:45:53;426582.00;1.42;735.51;111090.00;0.37;192.71;;;;;15.50;1.00;;;;;;2264163;61;1435;-88
2022/03/17 09:48:22;748538.00;2.50;1291.52;84999.00;0.28;147.67;;;;;15.40;1.00;;;;;;2264351;61;1045;-89
2022/03/17 09:50:55;387633.00;1.29;668.55;72386.00;0.24;125.88;;;;;15.70;1.00;;;;;;2264276;61;1989;-86
2022/03/17 09:53:22;598914.00;2.00;1032.34;105468.00;0.35;183.01;;;;;15.70;1.00;;;;;;2264275;61;942;-86
2022/03/17 09:55:50;275961.00;0.92;476.59;96311.00;0.32;167.20;;;;;15.80;1.00;;;;;;2264258;61;1360;-89